sensor_id;sensor_type;location;lat;lon;timestamp;P1;durP1;ratioP1;P2;durP2;ratioP2
45836;SDS011;31548;51.420;-0.040;2023-06-22T00:00:23;4.25;;;1.45;;
45836;SDS011;31548;51.420;-0.040;2023-06-22T00:02:50;1.92;;;1.00;;
45836;SDS011;31548;51.420;-0.040;2023-06-22T00:05:17;3.72;;;1.40;;
45836;SDS011;31548;51.420;-0.040;2023-06-22T00:07:45;3.38;;;1.30;;
45836;SDS011;31548;51.420;-0.040;2023-06-22T00:10:12;3.38;;;1.27;;
45836;SDS011;31548;51.420;-0.040;2023-06-22T00:12:39;3.30;;;0.90;;
45836;SDS011;31548;51.420;-0.040;2023-06-22T00:15:07;2.90;;;1.02;;
45836;SDS011;31548;51.420;-0.040;2023-06-22T00:17:34;2.70;;;0.90;;
45836;SDS011;31548;51.420;-0.040;2023-06-22T00:20:01;4.55;;;1.20;;
45836;SDS011;31548;51.420;-0.040;2023-06-22T00:22:32;4.18;;;1.00;;
45836;SDS011;31548;51.420;-0.040;2023-06-22T00:25:08;3.83;;;1.45;;
45836;SDS011;31548;51.420;-0.040;2023-06-22T00:27:36;6.03;;;1.25;;
45836;SDS011;31548;51.420;-0.040;2023-06-22T00:30:06;3.70;;;1.10;;
45836;SDS011;31548;51.420;-0.040;2023-06-22T00:32:33;2.47;;;0.90;;
45836;SDS011;31548;51.420;-0.040;2023-06-22T00:35:01;4.32;;;1.00;;
45836;SDS011;31548;51.420;-0.040;2023-06-22T00:37:29;3.67;;;1.05;;
45836;SDS011;31548;51.420;-0.040;2023-06-22T00:39:56;4.55;;;1.35;;
45836;SDS011;31548;51.420;-0.040;2023-06-22T00:42:24;2.67;;;1.10;;
45836;SDS011;31548;51.420;-0.040;2023-06-22T00:44:52;3.63;;;1.20;;
45836;SDS011;31548;51.420;-0.040;2023-06-22T00:47:19;6.40;;;1.38;;
45836;SDS011;31548;51.420;-0.040;2023-06-22T00:49:48;2.67;;;1.23;;
45836;SDS011;31548;51.420;-0.040;2023-06-22T00:52:19;1.55;;;0.90;;
45836;SDS011;31548;51.420;-0.040;2023-06-22T00:54:55;2.40;;;1.30;;
45836;SDS011;31548;51.420;-0.040;2023-06-22T00:57:24;3.97;;;1.08;;
45836;SDS011;31548;51.420;-0.040;2023-06-22T00:59:54;6.03;;;1.67;;
45836;SDS011;31548;51.420;-0.040;2023-06-22T01:02:22;2.35;;;1.25;;
45836;SDS011;31548;51.420;-0.040;2023-06-22T01:04:50;6.40;;;2.05;;
45836;SDS011;31548;51.420;-0.040;2023-06-22T01:09:54;4.47;;;1.20;;
45836;SDS011;31548;51.420;-0.040;2023-06-22T01:12:31;3.83;;;0.88;;
45836;SDS011;31548;51.420;-0.040;2023-06-22T01:17:41;2.67;;;0.90;;
45836;SDS011;31548;51.420;-0.040;2023-06-22T01:20:10;5.03;;;1.05;;
45836;SDS011;31548;51.420;-0.040;2023-06-22T01:22:57;3.90;;;1.35;;
45836;SDS011;31548;51.420;-0.040;2023-06-22T01:25:48;4.57;;;1.10;;
45836;SDS011;31548;51.420;-0.040;2023-06-22T01:28:42;3.83;;;1.00;;
45836;SDS011;31548;51.420;-0.040;2023-06-22T01:31:16;2.78;;;1.27;;
45836;SDS011;31548;51.420;-0.040;2023-06-22T01:33:46;4.30;;;1.42;;
45836;SDS011;31548;51.420;-0.040;2023-06-22T01:36:18;4.85;;;1.30;;
45836;SDS011;31548;51.420;-0.040;2023-06-22T01:38:46;3.97;;;1.00;;
45836;SDS011;31548;51.420;-0.040;2023-06-22T01:41:18;3.28;;;1.00;;
45836;SDS011;31548;51.420;-0.040;2023-06-22T01:43:47;3.05;;;1.35;;
45836;SDS011;31548;51.420;-0.040;2023-06-22T01:46:15;5.05;;;1.25;;
45836;SDS011;31548;51.420;-0.040;2023-06-22T01:48:46;3.20;;;1.30;;
45836;SDS011;31548;51.420;-0.040;2023-06-22T01:51:14;5.72;;;1.25;;
45836;SDS011;31548;51.420;-0.040;2023-06-22T01:53:42;2.63;;;1.17;;
45836;SDS011;31548;51.420;-0.040;2023-06-22T01:56:09;2.50;;;0.98;;
45836;SDS011;31548;51.420;-0.040;2023-06-22T01:58:38;4.05;;;1.90;;
45836;SDS011;31548;51.420;-0.040;2023-06-22T02:01:13;4.85;;;1.33;;
45836;SDS011;31548;51.420;-0.040;2023-06-22T02:03:53;4.30;;;1.42;;
45836;SDS011;31548;51.420;-0.040;2023-06-22T02:06:31;3.13;;;1.27;;
45836;SDS011;31548;51.420;-0.040;2023-06-22T02:09:08;5.05;;;1.42;;
45836;SDS011;31548;51.420;-0.040;2023-06-22T02:11:39;4.55;;;1.65;;
45836;SDS011;31548;51.420;-0.040;2023-06-22T02:14:09;3.55;;;1.45;;
45836;SDS011;31548;51.420;-0.040;2023-06-22T02:16:38;4.47;;;1.20;;
45836;SDS011;31548;51.420;-0.040;2023-06-22T02:19:07;2.70;;;1.23;;
45836;SDS011;31548;51.420;-0.040;2023-06-22T02:21:34;3.55;;;1.45;;
45836;SDS011;31548;51.420;-0.040;2023-06-22T02:24:02;2.25;;;1.30;;
45836;SDS011;31548;51.420;-0.040;2023-06-22T02:26:30;5.15;;;1.20;;
45836;SDS011;31548;51.420;-0.040;2023-06-22T02:29:01;6.95;;;1.40;;
45836;SDS011;31548;51.420;-0.040;2023-06-22T02:31:28;2.45;;;1.10;;
45836;SDS011;31548;51.420;-0.040;2023-06-22T02:33:58;2.78;;;1.30;;
45836;SDS011;31548;51.420;-0.040;2023-06-22T02:36:25;5.40;;;1.20;;
45836;SDS011;31548;51.420;-0.040;2023-06-22T02:38:59;2.55;;;1.20;;
45836;SDS011;31548;51.420;-0.040;2023-06-22T02:41:29;3.78;;;1.63;;
45836;SDS011;31548;51.420;-0.040;2023-06-22T02:43:57;2.83;;;1.15;;
45836;SDS011;31548;51.420;-0.040;2023-06-22T02:46:24;4.13;;;1.92;;
45836;SDS011;31548;51.420;-0.040;2023-06-22T02:48:52;4.38;;;1.30;;
45836;SDS011;31548;51.420;-0.040;2023-06-22T02:51:19;3.60;;;1.48;;
45836;SDS011;31548;51.420;-0.040;2023-06-22T02:53:47;4.05;;;1.48;;
45836;SDS011;31548;51.420;-0.040;2023-06-22T02:56:15;3.08;;;1.55;;
45836;SDS011;31548;51.420;-0.040;2023-06-22T02:58:44;4.40;;;1.67;;
45836;SDS011;31548;51.420;-0.040;2023-06-22T03:01:12;4.50;;;1.13;;
45836;SDS011;31548;51.420;-0.040;2023-06-22T03:03:44;2.35;;;1.15;;
45836;SDS011;31548;51.420;-0.040;2023-06-22T03:06:12;3.33;;;1.35;;
45836;SDS011;31548;51.420;-0.040;2023-06-22T03:08:41;1.65;;;1.20;;
45836;SDS011;31548;51.420;-0.040;2023-06-22T03:11:09;4.70;;;1.30;;
45836;SDS011;31548;51.420;-0.040;2023-06-22T03:13:37;5.05;;;1.67;;
45836;SDS011;31548;51.420;-0.040;2023-06-22T03:16:06;3.17;;;1.40;;
45836;SDS011;31548;51.420;-0.040;2023-06-22T03:18:33;5.93;;;1.75;;
45836;SDS011;31548;51.420;-0.040;2023-06-22T03:21:00;2.53;;;1.20;;
45836;SDS011;31548;51.420;-0.040;2023-06-22T03:23:30;3.33;;;1.95;;
45836;SDS011;31548;51.420;-0.040;2023-06-22T03:25:58;8.98;;;2.03;;
45836;SDS011;31548;51.420;-0.040;2023-06-22T03:28:25;3.40;;;1.60;;
45836;SDS011;31548;51.420;-0.040;2023-06-22T03:30:52;3.38;;;1.63;;
45836;SDS011;31548;51.420;-0.040;2023-06-22T03:33:20;4.38;;;1.85;;
45836;SDS011;31548;51.420;-0.040;2023-06-22T03:35:48;5.07;;;2.10;;
45836;SDS011;31548;51.420;-0.040;2023-06-22T03:38:16;3.92;;;1.40;;
45836;SDS011;31548;51.420;-0.040;2023-06-22T03:40:44;2.25;;;1.40;;
45836;SDS011;31548;51.420;-0.040;2023-06-22T03:43:15;3.35;;;1.35;;
45836;SDS011;31548;51.420;-0.040;2023-06-22T03:45:42;4.40;;;1.70;;
45836;SDS011;31548;51.420;-0.040;2023-06-22T03:48:12;3.92;;;1.92;;
45836;SDS011;31548;51.420;-0.040;2023-06-22T03:50:39;2.40;;;1.60;;
45836;SDS011;31548;51.420;-0.040;2023-06-22T03:53:07;4.15;;;1.63;;
45836;SDS011;31548;51.420;-0.040;2023-06-22T03:55:34;8.40;;;1.67;;
45836;SDS011;31548;51.420;-0.040;2023-06-22T03:58:02;3.22;;;1.27;;
45836;SDS011;31548;51.420;-0.040;2023-06-22T04:00:32;3.83;;;1.85;;
45836;SDS011;31548;51.420;-0.040;2023-06-22T04:02:59;2.70;;;1.40;;
45836;SDS011;31548;51.420;-0.040;2023-06-22T04:05:27;4.05;;;2.40;;
45836;SDS011;31548;51.420;-0.040;2023-06-22T04:07:54;4.05;;;1.48;;
45836;SDS011;31548;51.420;-0.040;2023-06-22T04:10:22;2.72;;;1.52;;
45836;SDS011;31548;51.420;-0.040;2023-06-22T04:12:49;5.25;;;1.65;;
45836;SDS011;31548;51.420;-0.040;2023-06-22T04:15:16;2.75;;;1.65;;
45836;SDS011;31548;51.420;-0.040;2023-06-22T04:17:44;4.72;;;1.85;;
45836;SDS011;31548;51.420;-0.040;2023-06-22T04:20:11;4.43;;;1.83;;
45836;SDS011;31548;51.420;-0.040;2023-06-22T04:22:38;5.00;;;1.77;;
45836;SDS011;31548;51.420;-0.040;2023-06-22T04:25:06;5.38;;;2.28;;
45836;SDS011;31548;51.420;-0.040;2023-06-22T04:27:37;3.67;;;1.55;;
45836;SDS011;31548;51.420;-0.040;2023-06-22T04:30:07;3.03;;;1.85;;
45836;SDS011;31548;51.420;-0.040;2023-06-22T04:32:35;4.18;;;1.85;;
45836;SDS011;31548;51.420;-0.040;2023-06-22T04:35:03;8.18;;;1.80;;
45836;SDS011;31548;51.420;-0.040;2023-06-22T04:37:33;5.18;;;1.92;;
45836;SDS011;31548;51.420;-0.040;2023-06-22T04:40:01;9.13;;;2.05;;
45836;SDS011;31548;51.420;-0.040;2023-06-22T04:42:31;3.60;;;2.03;;
45836;SDS011;31548;51.420;-0.040;2023-06-22T04:45:00;4.30;;;2.42;;
45836;SDS011;31548;51.420;-0.040;2023-06-22T04:47:28;6.10;;;3.25;;
45836;SDS011;31548;51.420;-0.040;2023-06-22T04:49:56;7.50;;;3.47;;
45836;SDS011;31548;51.420;-0.040;2023-06-22T04:52:23;3.58;;;2.20;;
45836;SDS011;31548;51.420;-0.040;2023-06-22T04:54:51;3.85;;;2.13;;
45836;SDS011;31548;51.420;-0.040;2023-06-22T04:57:22;5.40;;;2.05;;
45836;SDS011;31548;51.420;-0.040;2023-06-22T04:59:58;4.07;;;1.63;;
45836;SDS011;31548;51.420;-0.040;2023-06-22T05:02:38;3.33;;;1.60;;
45836;SDS011;31548;51.420;-0.040;2023-06-22T05:05:06;5.97;;;1.92;;
45836;SDS011;31548;51.420;-0.040;2023-06-22T05:07:34;3.70;;;1.85;;
45836;SDS011;31548;51.420;-0.040;2023-06-22T05:10:02;4.65;;;2.30;;
45836;SDS011;31548;51.420;-0.040;2023-06-22T05:12:30;6.93;;;3.53;;
45836;SDS011;31548;51.420;-0.040;2023-06-22T05:14:57;4.20;;;3.00;;
45836;SDS011;31548;51.420;-0.040;2023-06-22T05:17:25;5.22;;;2.47;;
45836;SDS011;31548;51.420;-0.040;2023-06-22T05:19:52;4.05;;;2.25;;
45836;SDS011;31548;51.420;-0.040;2023-06-22T05:22:20;5.20;;;2.33;;
45836;SDS011;31548;51.420;-0.040;2023-06-22T05:24:47;5.70;;;3.05;;
45836;SDS011;31548;51.420;-0.040;2023-06-22T05:27:14;6.97;;;3.15;;
45836;SDS011;31548;51.420;-0.040;2023-06-22T05:29:42;6.18;;;2.75;;
45836;SDS011;31548;51.420;-0.040;2023-06-22T05:32:09;4.75;;;2.55;;
45836;SDS011;31548;51.420;-0.040;2023-06-22T05:34:38;8.82;;;3.30;;
45836;SDS011;31548;51.420;-0.040;2023-06-22T05:37:05;6.50;;;2.72;;
45836;SDS011;31548;51.420;-0.040;2023-06-22T05:39:33;6.85;;;3.10;;
45836;SDS011;31548;51.420;-0.040;2023-06-22T05:42:00;6.15;;;2.78;;
45836;SDS011;31548;51.420;-0.040;2023-06-22T05:44:27;5.22;;;2.70;;
45836;SDS011;31548;51.420;-0.040;2023-06-22T05:46:55;5.40;;;2.38;;
45836;SDS011;31548;51.420;-0.040;2023-06-22T05:49:22;5.63;;;2.50;;
45836;SDS011;31548;51.420;-0.040;2023-06-22T05:51:51;10.73;;;3.67;;
45836;SDS011;31548;51.420;-0.040;2023-06-22T05:54:18;5.85;;;2.40;;
45836;SDS011;31548;51.420;-0.040;2023-06-22T05:56:45;7.53;;;2.80;;
45836;SDS011;31548;51.420;-0.040;2023-06-22T05:59:13;6.72;;;2.75;;
45836;SDS011;31548;51.420;-0.040;2023-06-22T06:01:40;5.82;;;2.40;;
45836;SDS011;31548;51.420;-0.040;2023-06-22T06:04:07;8.63;;;2.80;;
45836;SDS011;31548;51.420;-0.040;2023-06-22T06:06:35;5.65;;;2.47;;
45836;SDS011;31548;51.420;-0.040;2023-06-22T06:09:04;5.63;;;2.33;;
45836;SDS011;31548;51.420;-0.040;2023-06-22T06:11:31;6.78;;;2.80;;
45836;SDS011;31548;51.420;-0.040;2023-06-22T06:13:59;5.47;;;2.22;;
45836;SDS011;31548;51.420;-0.040;2023-06-22T06:16:26;5.47;;;2.72;;
45836;SDS011;31548;51.420;-0.040;2023-06-22T06:18:53;4.75;;;2.60;;
45836;SDS011;31548;51.420;-0.040;2023-06-22T06:21:22;5.57;;;3.20;;
45836;SDS011;31548;51.420;-0.040;2023-06-22T06:23:50;5.18;;;2.70;;
45836;SDS011;31548;51.420;-0.040;2023-06-22T06:26:17;6.05;;;2.65;;
45836;SDS011;31548;51.420;-0.040;2023-06-22T06:28:44;5.00;;;3.10;;
45836;SDS011;31548;51.420;-0.040;2023-06-22T06:31:12;8.20;;;2.72;;
45836;SDS011;31548;51.420;-0.040;2023-06-22T06:33:43;5.47;;;2.78;;
45836;SDS011;31548;51.420;-0.040;2023-06-22T06:36:11;9.55;;;2.85;;
45836;SDS011;31548;51.420;-0.040;2023-06-22T06:38:38;5.78;;;3.03;;
45836;SDS011;31548;51.420;-0.040;2023-06-22T06:41:06;4.35;;;2.58;;
45836;SDS011;31548;51.420;-0.040;2023-06-22T06:43:33;5.43;;;2.97;;
45836;SDS011;31548;51.420;-0.040;2023-06-22T06:46:00;7.80;;;2.47;;
45836;SDS011;31548;51.420;-0.040;2023-06-22T06:48:30;9.27;;;3.17;;
45836;SDS011;31548;51.420;-0.040;2023-06-22T06:50:57;4.78;;;2.60;;
45836;SDS011;31548;51.420;-0.040;2023-06-22T06:53:25;7.80;;;2.30;;
45836;SDS011;31548;51.420;-0.040;2023-06-22T06:55:52;6.95;;;2.50;;
45836;SDS011;31548;51.420;-0.040;2023-06-22T06:58:19;6.30;;;3.72;;
45836;SDS011;31548;51.420;-0.040;2023-06-22T07:00:47;3.58;;;2.35;;
45836;SDS011;31548;51.420;-0.040;2023-06-22T07:03:14;4.65;;;2.45;;
45836;SDS011;31548;51.420;-0.040;2023-06-22T07:05:41;7.47;;;3.05;;
45836;SDS011;31548;51.420;-0.040;2023-06-22T07:08:09;2.75;;;2.45;;
45836;SDS011;31548;51.420;-0.040;2023-06-22T07:10:37;7.38;;;2.22;;
45836;SDS011;31548;51.420;-0.040;2023-06-22T07:13:04;6.97;;;2.83;;
45836;SDS011;31548;51.420;-0.040;2023-06-22T07:15:31;4.20;;;3.13;;
45836;SDS011;31548;51.420;-0.040;2023-06-22T07:17:59;3.95;;;2.22;;
45836;SDS011;31548;51.420;-0.040;2023-06-22T07:20:26;6.72;;;2.78;;
45836;SDS011;31548;51.420;-0.040;2023-06-22T07:22:54;7.10;;;3.10;;
45836;SDS011;31548;51.420;-0.040;2023-06-22T07:25:21;7.20;;;3.17;;
45836;SDS011;31548;51.420;-0.040;2023-06-22T07:28:02;10.02;;;3.10;;
45836;SDS011;31548;51.420;-0.040;2023-06-22T07:30:31;7.05;;;3.30;;
45836;SDS011;31548;51.420;-0.040;2023-06-22T07:33:01;8.98;;;3.30;;
45836;SDS011;31548;51.420;-0.040;2023-06-22T07:35:35;4.43;;;2.55;;
45836;SDS011;31548;51.420;-0.040;2023-06-22T07:38:02;8.07;;;4.40;;
45836;SDS011;31548;51.420;-0.040;2023-06-22T07:40:32;7.10;;;3.58;;
45836;SDS011;31548;51.420;-0.040;2023-06-22T07:43:00;9.98;;;3.88;;
45836;SDS011;31548;51.420;-0.040;2023-06-22T07:45:28;9.65;;;3.60;;
45836;SDS011;31548;51.420;-0.040;2023-06-22T07:47:56;4.80;;;3.60;;
45836;SDS011;31548;51.420;-0.040;2023-06-22T07:50:23;4.72;;;2.30;;
45836;SDS011;31548;51.420;-0.040;2023-06-22T07:52:51;5.15;;;2.53;;
45836;SDS011;31548;51.420;-0.040;2023-06-22T07:55:19;12.95;;;3.67;;
45836;SDS011;31548;51.420;-0.040;2023-06-22T07:57:47;9.40;;;3.28;;
45836;SDS011;31548;51.420;-0.040;2023-06-22T08:00:15;7.93;;;2.47;;
45836;SDS011;31548;51.420;-0.040;2023-06-22T08:02:44;7.78;;;4.05;;
45836;SDS011;31548;51.420;-0.040;2023-06-22T08:05:13;8.85;;;4.50;;
45836;SDS011;31548;51.420;-0.040;2023-06-22T08:07:44;8.75;;;2.90;;
45836;SDS011;31548;51.420;-0.040;2023-06-22T08:10:14;5.95;;;2.95;;
45836;SDS011;31548;51.420;-0.040;2023-06-22T08:12:41;10.13;;;3.83;;
45836;SDS011;31548;51.420;-0.040;2023-06-22T08:15:09;7.13;;;3.25;;
45836;SDS011;31548;51.420;-0.040;2023-06-22T08:17:37;6.03;;;2.40;;
45836;SDS011;31548;51.420;-0.040;2023-06-22T08:20:06;8.75;;;3.63;;
45836;SDS011;31548;51.420;-0.040;2023-06-22T08:22:41;12.20;;;3.75;;
45836;SDS011;31548;51.420;-0.040;2023-06-22T08:25:09;5.55;;;2.70;;
45836;SDS011;31548;51.420;-0.040;2023-06-22T08:27:37;7.15;;;2.75;;
45836;SDS011;31548;51.420;-0.040;2023-06-22T08:30:04;6.57;;;3.78;;
45836;SDS011;31548;51.420;-0.040;2023-06-22T08:32:33;11.10;;;3.72;;
45836;SDS011;31548;51.420;-0.040;2023-06-22T08:35:00;6.45;;;2.97;;
45836;SDS011;31548;51.420;-0.040;2023-06-22T08:37:28;3.80;;;2.10;;
45836;SDS011;31548;51.420;-0.040;2023-06-22T08:40:03;8.57;;;2.50;;
45836;SDS011;31548;51.420;-0.040;2023-06-22T08:42:32;6.03;;;2.95;;
45836;SDS011;31548;51.420;-0.040;2023-06-22T08:45:00;7.05;;;3.15;;
45836;SDS011;31548;51.420;-0.040;2023-06-22T08:47:28;9.45;;;3.45;;
45836;SDS011;31548;51.420;-0.040;2023-06-22T08:49:56;3.10;;;2.38;;
45836;SDS011;31548;51.420;-0.040;2023-06-22T08:52:23;4.85;;;1.67;;
45836;SDS011;31548;51.420;-0.040;2023-06-22T08:54:51;3.60;;;1.92;;
45836;SDS011;31548;51.420;-0.040;2023-06-22T08:57:18;3.20;;;1.90;;
45836;SDS011;31548;51.420;-0.040;2023-06-22T08:59:45;12.00;;;2.78;;
45836;SDS011;31548;51.420;-0.040;2023-06-22T09:02:13;3.60;;;1.65;;
45836;SDS011;31548;51.420;-0.040;2023-06-22T09:04:40;3.38;;;1.88;;
45836;SDS011;31548;51.420;-0.040;2023-06-22T09:07:08;3.50;;;1.40;;
45836;SDS011;31548;51.420;-0.040;2023-06-22T09:09:36;4.75;;;2.22;;
45836;SDS011;31548;51.420;-0.040;2023-06-22T09:12:03;4.53;;;1.85;;
45836;SDS011;31548;51.420;-0.040;2023-06-22T09:14:31;4.28;;;1.83;;
45836;SDS011;31548;51.420;-0.040;2023-06-22T09:16:58;2.78;;;1.33;;
45836;SDS011;31548;51.420;-0.040;2023-06-22T09:19:26;2.28;;;1.50;;
45836;SDS011;31548;51.420;-0.040;2023-06-22T09:21:53;7.18;;;1.90;;
45836;SDS011;31548;51.420;-0.040;2023-06-22T09:24:20;3.85;;;1.60;;
45836;SDS011;31548;51.420;-0.040;2023-06-22T09:26:48;6.60;;;1.70;;
45836;SDS011;31548;51.420;-0.040;2023-06-22T09:29:15;3.17;;;1.50;;
45836;SDS011;31548;51.420;-0.040;2023-06-22T09:31:43;1.60;;;1.30;;
45836;SDS011;31548;51.420;-0.040;2023-06-22T09:34:11;4.38;;;1.73;;
45836;SDS011;31548;51.420;-0.040;2023-06-22T09:36:40;3.30;;;1.90;;
45836;SDS011;31548;51.420;-0.040;2023-06-22T09:39:08;3.45;;;1.50;;
45836;SDS011;31548;51.420;-0.040;2023-06-22T09:41:35;5.80;;;2.00;;
45836;SDS011;31548;51.420;-0.040;2023-06-22T09:44:02;4.15;;;1.92;;
45836;SDS011;31548;51.420;-0.040;2023-06-22T09:46:30;3.15;;;1.92;;
45836;SDS011;31548;51.420;-0.040;2023-06-22T09:48:57;4.72;;;1.73;;
45836;SDS011;31548;51.420;-0.040;2023-06-22T09:51:24;2.80;;;1.40;;
45836;SDS011;31548;51.420;-0.040;2023-06-22T09:53:52;3.42;;;1.50;;
45836;SDS011;31548;51.420;-0.040;2023-06-22T09:56:22;3.60;;;1.73;;
45836;SDS011;31548;51.420;-0.040;2023-06-22T09:58:49;2.95;;;1.50;;
45836;SDS011;31548;51.420;-0.040;2023-06-22T10:01:21;6.28;;;2.30;;
45836;SDS011;31548;51.420;-0.040;2023-06-22T10:03:49;2.83;;;1.92;;
45836;SDS011;31548;51.420;-0.040;2023-06-22T10:06:17;2.92;;;1.70;;
45836;SDS011;31548;51.420;-0.040;2023-06-22T10:08:44;3.65;;;2.08;;
45836;SDS011;31548;51.420;-0.040;2023-06-22T10:11:11;8.10;;;2.17;;
45836;SDS011;31548;51.420;-0.040;2023-06-22T10:13:38;6.13;;;1.50;;
45836;SDS011;31548;51.420;-0.040;2023-06-22T10:16:06;2.15;;;1.48;;
45836;SDS011;31548;51.420;-0.040;2023-06-22T10:18:33;4.70;;;2.47;;
45836;SDS011;31548;51.420;-0.040;2023-06-22T10:21:01;5.07;;;2.00;;
45836;SDS011;31548;51.420;-0.040;2023-06-22T10:23:28;4.15;;;1.85;;
45836;SDS011;31548;51.420;-0.040;2023-06-22T10:25:55;5.15;;;2.35;;
45836;SDS011;31548;51.420;-0.040;2023-06-22T10:28:24;7.82;;;3.10;;
45836;SDS011;31548;51.420;-0.040;2023-06-22T10:30:52;7.05;;;2.40;;
45836;SDS011;31548;51.420;-0.040;2023-06-22T10:33:19;5.88;;;2.00;;
45836;SDS011;31548;51.420;-0.040;2023-06-22T10:35:47;3.75;;;2.05;;
45836;SDS011;31548;51.420;-0.040;2023-06-22T10:38:14;20.95;;;2.38;;
45836;SDS011;31548;51.420;-0.040;2023-06-22T10:40:42;3.13;;;1.65;;
45836;SDS011;31548;51.420;-0.040;2023-06-22T10:43:09;2.00;;;1.25;;
45836;SDS011;31548;51.420;-0.040;2023-06-22T10:45:36;3.55;;;1.48;;
45836;SDS011;31548;51.420;-0.040;2023-06-22T10:48:04;3.45;;;1.40;;
45836;SDS011;31548;51.420;-0.040;2023-06-22T10:50:31;4.45;;;1.52;;
45836;SDS011;31548;51.420;-0.040;2023-06-22T10:52:59;4.47;;;1.13;;
45836;SDS011;31548;51.420;-0.040;2023-06-22T10:55:26;3.75;;;1.52;;
45836;SDS011;31548;51.420;-0.040;2023-06-22T10:58:05;1.77;;;0.90;;
45836;SDS011;31548;51.420;-0.040;2023-06-22T11:00:34;2.25;;;1.25;;
45836;SDS011;31548;51.420;-0.040;2023-06-22T11:03:01;5.00;;;1.30;;
45836;SDS011;31548;51.420;-0.040;2023-06-22T11:05:29;3.00;;;1.30;;
45836;SDS011;31548;51.420;-0.040;2023-06-22T11:07:57;1.58;;;1.02;;
45836;SDS011;31548;51.420;-0.040;2023-06-22T11:10:24;1.52;;;1.00;;
45836;SDS011;31548;51.420;-0.040;2023-06-22T11:12:52;2.03;;;1.00;;
45836;SDS011;31548;51.420;-0.040;2023-06-22T11:15:20;2.83;;;0.88;;
45836;SDS011;31548;51.420;-0.040;2023-06-22T11:17:47;3.80;;;0.98;;
45836;SDS011;31548;51.420;-0.040;2023-06-22T11:20:14;2.92;;;0.90;;
45836;SDS011;31548;51.420;-0.040;2023-06-22T11:22:42;2.22;;;0.88;;
45836;SDS011;31548;51.420;-0.040;2023-06-22T11:25:09;1.35;;;0.80;;
45836;SDS011;31548;51.420;-0.040;2023-06-22T11:27:38;4.82;;;0.77;;
45836;SDS011;31548;51.420;-0.040;2023-06-22T11:30:06;2.90;;;1.40;;
45836;SDS011;31548;51.420;-0.040;2023-06-22T11:32:35;3.25;;;0.88;;
45836;SDS011;31548;51.420;-0.040;2023-06-22T11:35:03;3.90;;;1.10;;
45836;SDS011;31548;51.420;-0.040;2023-06-22T11:37:30;7.35;;;1.10;;
45836;SDS011;31548;51.420;-0.040;2023-06-22T11:39:58;3.80;;;1.30;;
45836;SDS011;31548;51.420;-0.040;2023-06-22T11:42:33;1.95;;;0.90;;
45836;SDS011;31548;51.420;-0.040;2023-06-22T11:45:01;2.60;;;1.30;;
45836;SDS011;31548;51.420;-0.040;2023-06-22T11:47:29;1.52;;;0.80;;
45836;SDS011;31548;51.420;-0.040;2023-06-22T11:49:56;2.97;;;1.48;;
45836;SDS011;31548;51.420;-0.040;2023-06-22T11:52:23;1.77;;;1.17;;
45836;SDS011;31548;51.420;-0.040;2023-06-22T11:54:51;3.80;;;1.42;;
45836;SDS011;31548;51.420;-0.040;2023-06-22T11:57:18;4.82;;;1.10;;
45836;SDS011;31548;51.420;-0.040;2023-06-22T11:59:45;2.50;;;1.63;;
45836;SDS011;31548;51.420;-0.040;2023-06-22T12:02:12;2.38;;;0.90;;
45836;SDS011;31548;51.420;-0.040;2023-06-22T12:04:40;1.30;;;0.80;;
45836;SDS011;31548;51.420;-0.040;2023-06-22T12:07:08;4.70;;;0.90;;
45836;SDS011;31548;51.420;-0.040;2023-06-22T12:09:35;1.50;;;1.10;;
45836;SDS011;31548;51.420;-0.040;2023-06-22T12:12:02;1.48;;;0.95;;
45836;SDS011;31548;51.420;-0.040;2023-06-22T12:14:33;2.28;;;1.30;;
45836;SDS011;31548;51.420;-0.040;2023-06-22T12:17:01;1.77;;;1.10;;
45836;SDS011;31548;51.420;-0.040;2023-06-22T12:19:28;1.30;;;0.90;;
45836;SDS011;31548;51.420;-0.040;2023-06-22T12:21:55;0.85;;;0.70;;
45836;SDS011;31548;51.420;-0.040;2023-06-22T12:24:22;2.25;;;0.95;;
45836;SDS011;31548;51.420;-0.040;2023-06-22T12:26:50;0.98;;;0.60;;
45836;SDS011;31548;51.420;-0.040;2023-06-22T12:29:19;1.67;;;1.05;;
45836;SDS011;31548;51.420;-0.040;2023-06-22T12:31:47;0.93;;;0.75;;
45836;SDS011;31548;51.420;-0.040;2023-06-22T12:34:14;4.00;;;1.00;;
45836;SDS011;31548;51.420;-0.040;2023-06-22T12:36:41;1.70;;;1.27;;
45836;SDS011;31548;51.420;-0.040;2023-06-22T12:39:09;1.58;;;1.05;;
45836;SDS011;31548;51.420;-0.040;2023-06-22T12:41:36;1.95;;;0.95;;
45836;SDS011;31548;51.420;-0.040;2023-06-22T12:44:04;2.67;;;0.90;;
45836;SDS011;31548;51.420;-0.040;2023-06-22T12:46:31;1.83;;;0.90;;
45836;SDS011;31548;51.420;-0.040;2023-06-22T12:49:04;1.17;;;0.80;;
45836;SDS011;31548;51.420;-0.040;2023-06-22T12:51:32;1.05;;;0.70;;
45836;SDS011;31548;51.420;-0.040;2023-06-22T12:54:00;7.05;;;1.00;;
45836;SDS011;31548;51.420;-0.040;2023-06-22T12:56:28;4.05;;;0.90;;
45836;SDS011;31548;51.420;-0.040;2023-06-22T12:58:55;2.65;;;0.80;;
45836;SDS011;31548;51.420;-0.040;2023-06-22T13:01:24;1.88;;;0.80;;
45836;SDS011;31548;51.420;-0.040;2023-06-22T13:03:51;2.22;;;0.90;;
45836;SDS011;31548;51.420;-0.040;2023-06-22T13:06:19;1.98;;;1.27;;
45836;SDS011;31548;51.420;-0.040;2023-06-22T13:08:46;1.42;;;1.00;;
45836;SDS011;31548;51.420;-0.040;2023-06-22T13:11:17;0.95;;;0.82;;
45836;SDS011;31548;51.420;-0.040;2023-06-22T13:13:44;1.45;;;0.90;;
45836;SDS011;31548;51.420;-0.040;2023-06-22T13:16:12;1.38;;;0.90;;
45836;SDS011;31548;51.420;-0.040;2023-06-22T13:18:40;2.08;;;0.98;;
45836;SDS011;31548;51.420;-0.040;2023-06-22T13:21:07;1.70;;;0.80;;
45836;SDS011;31548;51.420;-0.040;2023-06-22T13:23:35;1.17;;;0.80;;
45836;SDS011;31548;51.420;-0.040;2023-06-22T13:26:02;1.95;;;0.80;;
45836;SDS011;31548;51.420;-0.040;2023-06-22T13:28:29;1.42;;;0.80;;
45836;SDS011;31548;51.420;-0.040;2023-06-22T13:30:57;1.38;;;0.80;;
45836;SDS011;31548;51.420;-0.040;2023-06-22T13:33:24;2.13;;;1.25;;
45836;SDS011;31548;51.420;-0.040;2023-06-22T13:35:51;3.85;;;0.95;;
45836;SDS011;31548;51.420;-0.040;2023-06-22T13:38:19;2.35;;;0.80;;
45836;SDS011;31548;51.420;-0.040;2023-06-22T13:40:46;1.52;;;0.80;;
45836;SDS011;31548;51.420;-0.040;2023-06-22T13:43:14;1.73;;;0.80;;
45836;SDS011;31548;51.420;-0.040;2023-06-22T13:45:42;1.70;;;0.63;;
45836;SDS011;31548;51.420;-0.040;2023-06-22T13:48:10;4.53;;;0.95;;
45836;SDS011;31548;51.420;-0.040;2023-06-22T13:50:37;1.77;;;0.90;;
45836;SDS011;31548;51.420;-0.040;2023-06-22T13:53:04;2.78;;;1.10;;
45836;SDS011;31548;51.420;-0.040;2023-06-22T13:55:32;1.77;;;1.00;;
45836;SDS011;31548;51.420;-0.040;2023-06-22T13:57:59;2.60;;;0.85;;
45836;SDS011;31548;51.420;-0.040;2023-06-22T14:00:27;0.63;;;0.60;;
45836;SDS011;31548;51.420;-0.040;2023-06-22T14:02:56;1.02;;;0.80;;
45836;SDS011;31548;51.420;-0.040;2023-06-22T14:05:23;1.08;;;0.80;;
45836;SDS011;31548;51.420;-0.040;2023-06-22T14:07:50;1.00;;;0.90;;
45836;SDS011;31548;51.420;-0.040;2023-06-22T14:10:18;1.00;;;0.60;;
45836;SDS011;31548;51.420;-0.040;2023-06-22T14:12:46;1.63;;;0.80;;
45836;SDS011;31548;51.420;-0.040;2023-06-22T14:15:16;1.70;;;0.70;;
45836;SDS011;31548;51.420;-0.040;2023-06-22T14:17:43;2.00;;;0.70;;
45836;SDS011;31548;51.420;-0.040;2023-06-22T14:20:11;3.72;;;0.90;;
45836;SDS011;31548;51.420;-0.040;2023-06-22T14:22:38;1.45;;;0.75;;
45836;SDS011;31548;51.420;-0.040;2023-06-22T14:25:06;0.77;;;0.77;;
45836;SDS011;31548;51.420;-0.040;2023-06-22T14:27:34;0.57;;;0.57;;
45836;SDS011;31548;51.420;-0.040;2023-06-22T14:30:01;1.85;;;0.80;;
45836;SDS011;31548;51.420;-0.040;2023-06-22T14:32:32;0.80;;;0.80;;
45836;SDS011;31548;51.420;-0.040;2023-06-22T14:34:59;2.60;;;0.63;;
45836;SDS011;31548;51.420;-0.040;2023-06-22T14:37:27;1.40;;;0.95;;
45836;SDS011;31548;51.420;-0.040;2023-06-22T14:39:54;3.40;;;0.60;;
45836;SDS011;31548;51.420;-0.040;2023-06-22T14:42:22;3.55;;;0.80;;
45836;SDS011;31548;51.420;-0.040;2023-06-22T14:44:49;2.15;;;1.13;;